createdAt,value
2023-01-30T00:00:44.843Z,4.97
2023-01-30T00:03:57.463Z,2.83
2023-01-30T00:07:00.441Z,1.92
2023-01-30T00:10:02.637Z,3.38
2023-01-30T00:13:06.961Z,4.15
2023-01-30T00:16:10.083Z,4.78
2023-01-30T00:19:12.592Z,4.55
2023-01-30T00:22:14.785Z,4.22
2023-01-30T00:25:17.193Z,2.83
2023-01-30T00:28:19.379Z,5.80
2023-01-30T00:31:23.021Z,4.60
2023-01-30T00:34:26.022Z,3.80
2023-01-30T00:37:28.763Z,4.00
2023-01-30T00:43:54.859Z,4.68
2023-01-30T00:47:07.462Z,6.25
2023-01-30T00:50:12.068Z,4.47
2023-01-30T00:53:16.367Z,2.95
2023-01-30T00:56:18.962Z,6.07
2023-01-30T00:59:21.732Z,3.22
2023-01-30T01:02:24.623Z,4.95
2023-01-30T01:05:29.341Z,6.13
2023-01-30T01:08:32.210Z,4.20
2023-01-30T01:11:34.895Z,5.55
2023-01-30T01:14:37.748Z,4.18
2023-01-30T01:17:41.420Z,3.80
2023-01-30T01:20:44.132Z,4.93
2023-01-30T01:23:56.310Z,4.07
2023-01-30T01:26:58.876Z,4.20
2023-01-30T01:30:02.371Z,6.20
2023-01-30T01:33:05.388Z,4.18
2023-01-30T01:36:08.373Z,2.55
2023-01-30T01:39:10.716Z,5.07
2023-01-30T01:42:13.025Z,9.10
2023-01-30T01:45:24.568Z,5.72
2023-01-30T01:48:30.550Z,3.53
2023-01-30T01:51:38.822Z,4.25
2023-01-30T01:54:52.871Z,4.55
2023-01-30T01:57:59.804Z,3.67
2023-01-30T02:01:02.427Z,3.55
2023-01-30T02:04:09.348Z,4.82
2023-01-30T02:07:12.685Z,6.22
2023-01-30T02:10:20.126Z,3.10
2023-01-30T02:13:22.795Z,5.60
2023-01-30T02:16:25.813Z,4.30
2023-01-30T02:19:31.511Z,4.90
2023-01-30T02:22:37.977Z,6.28
2023-01-30T02:25:46.238Z,2.72
2023-01-30T02:29:15.573Z,5.35
2023-01-30T02:32:37.426Z,5.07
2023-01-30T02:35:56.237Z,6.13
2023-01-30T02:39:09.188Z,3.33
2023-01-30T02:42:19.842Z,3.03
2023-01-30T02:45:31.963Z,4.65
2023-01-30T02:49:00.770Z,3.72
2023-01-30T02:52:03.789Z,3.83
2023-01-30T02:55:10.902Z,3.10
2023-01-30T02:58:14.993Z,4.50
2023-01-30T03:01:45.917Z,2.33
2023-01-30T03:05:13.272Z,3.42
2023-01-30T03:08:25.065Z,6.63
2023-01-30T03:11:40.068Z,6.63
2023-01-30T03:14:56.604Z,3.78
2023-01-30T03:17:59.775Z,3.08
2023-01-30T03:21:07.253Z,6.30
2023-01-30T03:24:10.058Z,5.20
2023-01-30T03:27:13.923Z,8.82
2023-01-30T03:30:17.900Z,6.13
2023-01-30T03:33:20.561Z,7.85
2023-01-30T03:36:24.368Z,5.93
2023-01-30T03:39:27.342Z,7.63
2023-01-30T03:42:29.733Z,5.80
2023-01-30T03:45:32.132Z,10.68
2023-01-30T03:48:34.353Z,5.15
2023-01-30T03:51:37.915Z,3.83
2023-01-30T03:54:39.932Z,7.30
2023-01-30T03:57:42.503Z,8.48
2023-01-30T04:00:45.446Z,6.10
2023-01-30T04:03:48.487Z,5.68
2023-01-30T04:06:51.399Z,7.97
2023-01-30T04:09:54.537Z,7.35
2023-01-30T04:12:56.798Z,8.98
2023-01-30T04:16:23.279Z,9.07
2023-01-30T04:19:44.210Z,6.65
2023-01-30T04:22:48.465Z,9.98
2023-01-30T04:25:51.668Z,8.02
2023-01-30T04:28:56.567Z,11.15
2023-01-30T04:31:58.835Z,7.72
2023-01-30T04:35:04.955Z,11.07
2023-01-30T04:38:07.405Z,5.85
2023-01-30T04:41:10.203Z,9.38
2023-01-30T04:44:15.780Z,8.90
2023-01-30T04:47:47.221Z,16.10
2023-01-30T04:50:51.331Z,11.43
2023-01-30T04:53:55.969Z,12.68
2023-01-30T05:00:00.821Z,12.95
2023-01-30T05:03:03.727Z,5.22
2023-01-30T05:06:06.872Z,14.25
2023-01-30T05:09:08.949Z,16.58
2023-01-30T05:12:11.337Z,17.23
2023-01-30T05:15:14.324Z,13.98
2023-01-30T05:18:16.995Z,16.33
2023-01-30T05:21:26.299Z,13.40
2023-01-30T05:24:28.925Z,20.35
2023-01-30T05:27:30.950Z,14.77
2023-01-30T05:30:33.843Z,18.65
2023-01-30T05:33:36.127Z,10.60
2023-01-30T05:36:38.877Z,11.88
2023-01-30T05:39:41.179Z,10.93
2023-01-30T05:42:43.762Z,7.60
2023-01-30T05:45:53.178Z,17.40
2023-01-30T05:48:55.541Z,10.30
2023-01-30T05:51:58.388Z,9.38
2023-01-30T05:55:01.290Z,9.95
2023-01-30T05:58:04.238Z,15.63
2023-01-30T06:01:11.885Z,8.02
2023-01-30T06:04:14.873Z,16.98
2023-01-30T06:07:17.360Z,16.67
2023-01-30T06:10:19.477Z,14.60
2023-01-30T06:13:23.165Z,13.25
2023-01-30T06:16:25.333Z,15.77
2023-01-30T06:19:28.011Z,6.03
2023-01-30T06:22:30.379Z,14.05
2023-01-30T06:25:32.916Z,26.75
2023-01-30T06:28:36.142Z,7.68
2023-01-30T06:31:39.062Z,13.38
2023-01-30T06:34:42.303Z,18.23
2023-01-30T06:37:45.718Z,6.00
2023-01-30T06:40:49.939Z,6.57
2023-01-30T06:43:53.319Z,11.45
2023-01-30T06:46:56.037Z,9.15
2023-01-30T06:50:00.366Z,11.93
2023-01-30T06:53:05.822Z,11.30
2023-01-30T06:56:09.530Z,13.73
2023-01-30T06:59:12.032Z,15.00
2023-01-30T07:02:14.853Z,16.65
2023-01-30T07:05:18.716Z,10.18
2023-01-30T07:08:23.269Z,14.50
2023-01-30T07:11:26.669Z,11.32
2023-01-30T07:14:29.427Z,14.88
2023-01-30T07:17:32.187Z,6.30
2023-01-30T07:20:34.957Z,6.00
2023-01-30T07:23:37.378Z,11.20
2023-01-30T07:26:40.695Z,14.20
2023-01-30T07:29:42.933Z,8.57
2023-01-30T07:32:53.213Z,9.32
2023-01-30T07:35:55.904Z,7.43
2023-01-30T07:38:58.701Z,7.85
2023-01-30T07:42:02.064Z,15.98
2023-01-30T07:45:05.582Z,16.38
2023-01-30T07:48:10.991Z,16.67
2023-01-30T07:51:13.997Z,13.77
2023-01-30T07:54:17.210Z,8.38
2023-01-30T07:57:19.696Z,7.95
2023-01-30T08:00:22.154Z,12.15
2023-01-30T08:03:25.948Z,9.02
2023-01-30T08:06:28.035Z,15.07
2023-01-30T08:09:31.987Z,14.02
2023-01-30T08:12:34.610Z,11.35
2023-01-30T08:15:37.372Z,9.98
2023-01-30T08:18:40.192Z,13.57
2023-01-30T08:21:42.937Z,15.93
2023-01-30T08:24:45.520Z,17.80
2023-01-30T08:27:48.431Z,18.27
2023-01-30T08:30:52.820Z,17.25
2023-01-30T08:33:55.705Z,8.07
2023-01-30T08:36:57.738Z,15.95
2023-01-30T08:40:00.348Z,15.43
2023-01-30T08:43:03.711Z,15.50
2023-01-30T08:46:06.465Z,6.07
2023-01-30T08:49:08.907Z,19.33
2023-01-30T08:52:11.647Z,19.00
2023-01-30T08:55:13.965Z,11.43
2023-01-30T08:58:16.710Z,14.38
2023-01-30T09:01:19.027Z,15.15
2023-01-30T09:04:23.889Z,17.73
2023-01-30T09:10:31.190Z,28.48
2023-01-30T09:13:34.932Z,16.65
2023-01-30T09:16:38.024Z,15.25
2023-01-30T09:19:39.998Z,13.65
2023-01-30T09:22:42.858Z,20.63
2023-01-30T09:25:46.684Z,16.10
2023-01-30T09:28:49.243Z,15.50
2023-01-30T09:31:51.983Z,20.30
2023-01-30T09:34:54.618Z,22.80
2023-01-30T09:37:56.823Z,26.70
2023-01-30T09:41:00.488Z,23.58
2023-01-30T09:44:36.244Z,23.70
2023-01-30T09:48:17.619Z,18.45
2023-01-30T09:51:32.080Z,19.55
2023-01-30T09:54:39.173Z,6.25
2023-01-30T09:57:41.748Z,7.90
2023-01-30T10:00:47.356Z,12.77
2023-01-30T10:04:30.924Z,17.88
2023-01-30T10:07:44.989Z,13.55
2023-01-30T10:11:11.424Z,15.38
2023-01-30T10:14:25.900Z,19.00
2023-01-30T10:17:29.077Z,20.73
2023-01-30T10:20:45.831Z,23.60
2023-01-30T10:24:42.430Z,23.02
2023-01-30T10:28:10.592Z,18.23
2023-01-30T10:31:17.267Z,24.90
2023-01-30T10:34:29.486Z,14.40
2023-01-30T10:37:48.099Z,16.17
2023-01-30T10:41:24.202Z,12.90
2023-01-30T10:44:26.628Z,9.73
2023-01-30T10:47:50.369Z,15.75
2023-01-30T10:50:59.848Z,12.98
2023-01-30T10:54:38.366Z,20.25
2023-01-30T10:57:40.486Z,25.63
2023-01-30T11:00:55.802Z,21.00
2023-01-30T11:04:04.292Z,20.33
2023-01-30T11:07:07.892Z,8.75
2023-01-30T11:10:26.125Z,21.90
2023-01-30T11:13:34.024Z,21.90
2023-01-30T11:16:50.342Z,18.20
2023-01-30T11:19:57.408Z,16.90
2023-01-30T11:23:08.096Z,14.95
2023-01-30T11:26:29.505Z,12.13
2023-01-30T11:29:35.654Z,18.00
2023-01-30T11:32:38.224Z,20.90
2023-01-30T11:36:07.805Z,20.58
2023-01-30T11:39:13.356Z,18.90
2023-01-30T11:42:19.818Z,28.52
2023-01-30T11:45:27.161Z,19.90
2023-01-30T11:49:02.647Z,17.10
2023-01-30T11:51:55.994Z,25.02
2023-01-30T11:55:02.311Z,22.52
2023-01-30T11:58:10.467Z,12.27
2023-01-30T12:01:13.620Z,19.73
2023-01-30T12:04:16.543Z,15.07
2023-01-30T12:07:25.476Z,17.67
2023-01-30T12:10:32.150Z,19.50
2023-01-30T12:13:43.820Z,13.77
2023-01-30T12:17:11.743Z,15.85
2023-01-30T12:20:36.849Z,19.90
2023-01-30T12:27:04.820Z,17.35
2023-01-30T12:30:20.670Z,21.63
2023-01-30T12:33:28.862Z,17.55
2023-01-30T12:36:52.763Z,19.90
2023-01-30T12:40:19.750Z,12.90
2023-01-30T12:43:59.492Z,20.55
2023-01-30T12:47:26.498Z,15.55
2023-01-30T12:50:45.151Z,25.02
2023-01-30T12:53:50.406Z,15.77
2023-01-30T12:57:24.812Z,15.60
2023-01-30T13:00:49.508Z,16.98
2023-01-30T13:04:01.489Z,20.80
2023-01-30T13:07:31.988Z,17.67
2023-01-30T13:10:45.636Z,17.38
2023-01-30T13:14:02.034Z,15.95
2023-01-30T13:17:39.729Z,26.67
2023-01-30T13:20:54.800Z,21.40
2023-01-30T13:24:21.285Z,18.40
2023-01-30T13:27:25.143Z,19.63
2023-01-30T13:30:30.086Z,26.75
2023-01-30T13:33:44.865Z,18.75
2023-01-30T13:36:56.869Z,16.23
2023-01-30T13:40:05.529Z,24.52
2023-01-30T13:43:33.636Z,27.20
2023-01-30T13:46:38.399Z,17.23
2023-01-30T13:50:00.784Z,20.73
2023-01-30T13:53:34.614Z,18.48
2023-01-30T13:56:50.572Z,20.08
2023-01-30T14:00:22.057Z,13.52
2023-01-30T14:03:25.731Z,13.38
2023-01-30T14:15:32.283Z,21.47
2023-01-30T14:18:38.983Z,15.00
2023-01-30T14:21:58.040Z,18.27
2023-01-30T14:25:46.388Z,20.25
2023-01-30T14:28:48.735Z,22.02
2023-01-30T14:31:51.631Z,17.88
2023-01-30T14:35:05.609Z,15.75
2023-01-30T14:38:13.276Z,16.85
2023-01-30T14:41:15.394Z,20.42
2023-01-30T14:44:56.237Z,19.67
2023-01-30T14:48:37.815Z,10.93
2023-01-30T14:51:40.140Z,15.75
2023-01-30T14:54:49.893Z,17.33
2023-01-30T14:57:58.142Z,19.63
2023-01-30T15:01:00.703Z,20.65
2023-01-30T15:04:05.673Z,23.10
2023-01-30T15:07:13.086Z,21.08
2023-01-30T15:10:33.974Z,18.42
2023-01-30T15:14:12.118Z,16.25
2023-01-30T15:17:33.739Z,24.27
2023-01-30T15:20:50.859Z,16.80
2023-01-30T15:23:59.783Z,18.00
2023-01-30T15:27:31.880Z,16.95
2023-01-30T15:31:07.135Z,17.80
2023-01-30T15:34:22.033Z,27.20
2023-01-30T15:37:36.762Z,29.45
2023-01-30T15:40:41.002Z,17.60
2023-01-30T15:43:58.798Z,18.45
2023-01-30T15:47:42.145Z,21.80
2023-01-30T15:50:49.836Z,15.65
2023-01-30T15:53:52.194Z,14.20
2023-01-30T15:56:59.203Z,17.88
2023-01-30T16:00:02.263Z,16.17
2023-01-30T16:03:23.394Z,18.83
2023-01-30T16:06:35.156Z,17.67
2023-01-30T16:09:37.650Z,18.75
2023-01-30T16:12:41.217Z,17.67
2023-01-30T16:15:49.303Z,22.15
2023-01-30T16:18:58.047Z,21.70
2023-01-30T16:22:03.696Z,21.63
2023-01-30T16:25:22.313Z,20.73
2023-01-30T16:28:27.424Z,27.27
2023-01-30T16:31:34.889Z,23.65
2023-01-30T16:34:39.357Z,21.55
2023-01-30T16:37:41.474Z,22.55
2023-01-30T16:40:46.279Z,23.17
2023-01-30T16:44:21.872Z,21.27
2023-01-30T16:47:29.030Z,17.17
2023-01-30T16:50:31.280Z,19.45
2023-01-30T16:53:34.186Z,19.13
2023-01-30T16:56:37.761Z,17.73
2023-01-30T16:59:40.676Z,12.10
2023-01-30T17:02:51.418Z,20.95
2023-01-30T17:05:54.375Z,16.35
2023-01-30T17:08:59.246Z,18.67
2023-01-30T17:12:02.514Z,12.70
2023-01-30T17:15:13.850Z,18.50
2023-01-30T17:18:17.393Z,15.63
2023-01-30T17:21:21.493Z,17.30
2023-01-30T17:24:25.655Z,16.02
2023-01-30T17:27:29.785Z,19.52
2023-01-30T17:30:33.358Z,23.63
2023-01-30T17:33:35.458Z,22.10
2023-01-30T17:36:39.704Z,22.67
2023-01-30T17:39:41.878Z,24.70
2023-01-30T17:42:44.842Z,19.10
2023-01-30T17:45:48.454Z,21.45
2023-01-30T17:48:52.144Z,24.83
2023-01-30T17:51:56.090Z,25.65
2023-01-30T17:54:58.697Z,25.73
2023-01-30T17:58:01.469Z,18.77
2023-01-30T18:01:04.051Z,15.88
2023-01-30T18:04:06.542Z,16.75
2023-01-30T18:07:14.278Z,22.00
2023-01-30T18:10:19.298Z,12.52
2023-01-30T18:13:23.989Z,10.80
2023-01-30T18:16:31.233Z,9.93
2023-01-30T18:19:34.637Z,12.45
2023-01-30T18:22:37.133Z,9.02
2023-01-30T18:25:39.517Z,12.82
2023-01-30T18:28:43.104Z,11.15
2023-01-30T18:31:45.834Z,11.43
2023-01-30T18:34:48.047Z,7.03
2023-01-30T18:37:52.698Z,9.85
2023-01-30T18:40:55.253Z,19.40
2023-01-30T18:44:00.606Z,6.60
2023-01-30T18:47:02.851Z,8.52
2023-01-30T18:50:07.027Z,8.48
2023-01-30T18:53:09.363Z,5.47
2023-01-30T18:56:15.305Z,9.95
2023-01-30T18:59:19.106Z,3.65
2023-01-30T19:02:22.331Z,8.13
2023-01-30T19:05:25.259Z,20.20
2023-01-30T19:08:28.322Z,21.42
2023-01-30T19:11:50.205Z,13.80
2023-01-30T19:14:52.689Z,22.85
2023-01-30T19:17:57.425Z,20.05
2023-01-30T19:21:01.314Z,11.07
2023-01-30T19:24:07.785Z,15.65
2023-01-30T19:27:13.983Z,18.70
2023-01-30T19:30:17.253Z,20.98
2023-01-30T19:33:20.989Z,19.13
2023-01-30T19:36:25.136Z,15.02
2023-01-30T19:39:28.424Z,23.77
2023-01-30T19:42:30.336Z,17.33
2023-01-30T19:45:33.408Z,20.45
2023-01-30T19:48:36.530Z,16.73
2023-01-30T19:51:39.238Z,16.40
2023-01-30T19:54:43.915Z,13.63
2023-01-30T19:57:46.825Z,22.25
2023-01-30T20:00:50.348Z,21.35
2023-01-30T20:03:53.791Z,11.93
2023-01-30T20:06:55.856Z,24.52
2023-01-30T20:09:58.288Z,21.33
2023-01-30T20:13:00.551Z,13.45
2023-01-30T20:16:15.466Z,14.27
2023-01-30T20:19:17.896Z,14.05
2023-01-30T20:22:20.786Z,11.00
2023-01-30T20:25:24.231Z,12.25
2023-01-30T20:28:28.134Z,17.00
2023-01-30T20:36:20.197Z,4.05
2023-01-30T20:39:22.490Z,6.32
2023-01-30T20:42:24.888Z,14.75
2023-01-30T20:45:28.059Z,10.30
2023-01-30T20:48:30.488Z,7.22
2023-01-30T20:51:35.172Z,16.20
2023-01-30T20:57:45.061Z,6.38
2023-01-30T21:00:47.205Z,8.95
2023-01-30T21:03:52.443Z,6.90
2023-01-30T21:06:55.048Z,7.25
2023-01-30T21:09:57.512Z,6.85
2023-01-30T21:12:59.585Z,4.03
2023-01-30T21:16:08.324Z,8.23
2023-01-30T21:19:15.258Z,5.40
2023-01-30T21:22:18.637Z,13.15
2023-01-30T21:25:20.895Z,6.18
2023-01-30T21:28:23.678Z,3.55
2023-01-30T21:31:28.032Z,4.68
2023-01-30T21:34:35.416Z,6.30
2023-01-30T21:38:01.071Z,8.23
2023-01-30T21:41:22.874Z,4.70
2023-01-30T21:44:50.380Z,17.05
2023-01-30T21:53:14.831Z,12.20
2023-01-30T21:56:17.557Z,8.35
2023-01-30T21:59:19.647Z,6.45
2023-01-30T22:02:22.837Z,10.65
2023-01-30T22:05:25.036Z,5.78
2023-01-30T22:08:27.984Z,6.20
2023-01-30T22:11:30.803Z,9.43
2023-01-30T22:14:37.788Z,9.48
2023-01-30T22:17:40.049Z,11.52
2023-01-30T22:20:42.805Z,8.13
2023-01-30T22:23:48.666Z,5.75
2023-01-30T22:26:51.182Z,3.70
2023-01-30T22:29:53.291Z,3.85
2023-01-30T22:32:56.417Z,3.45
2023-01-30T22:35:59.197Z,6.50
2023-01-30T22:39:02.659Z,9.80
2023-01-30T22:42:04.779Z,6.10
2023-01-30T22:45:07.720Z,6.50
2023-01-30T22:48:10.114Z,6.65
2023-01-30T22:51:18.458Z,3.53
2023-01-30T22:54:20.466Z,7.03
2023-01-30T22:57:22.888Z,2.85
2023-01-30T23:00:25.268Z,6.10
2023-01-30T23:03:27.819Z,2.60
2023-01-30T23:06:31.546Z,3.58
2023-01-30T23:09:34.709Z,4.82
2023-01-30T23:12:55.615Z,3.42
2023-01-30T23:16:03.334Z,17.92
2023-01-30T23:19:07.205Z,2.25
2023-01-30T23:22:10.614Z,5.28
2023-01-30T23:25:13.270Z,4.45
2023-01-30T23:28:16.227Z,7.85
2023-01-30T23:31:24.322Z,5.82
2023-01-30T23:34:29.383Z,3.50
2023-01-30T23:37:51.008Z,4.35
2023-01-30T23:40:53.890Z,4.82
2023-01-30T23:43:57.889Z,3.67
2023-01-30T23:47:00.218Z,3.08
2023-01-30T23:50:02.312Z,2.30
2023-01-30T23:53:06.907Z,3.03
2023-01-30T23:56:10.118Z,11.90
2023-01-30T23:59:13.058Z,5.30
